createdAt,value
2023-12-31T00:00:27.878Z,5.6
2023-12-31T00:30:14.540Z,5
2023-12-31T01:00:07.037Z,5.1
2023-12-31T01:30:28.503Z,4.8
2023-12-31T02:00:28.484Z,5
2023-12-31T02:30:06.585Z,5
2023-12-31T03:00:21.915Z,4.7
2023-12-31T04:00:24.527Z,5
2023-12-31T04:30:23.922Z,4.7
2023-12-31T05:00:16.399Z,5.1
2023-12-31T05:30:02.113Z,4.5
2023-12-31T06:00:24.290Z,5.2
2023-12-31T06:30:09.529Z,5.2
2023-12-31T07:00:09.621Z,5.2
2023-12-31T07:30:02.038Z,6
2023-12-31T08:00:23.964Z,5.6
2023-12-31T08:30:04.115Z,5.5
2023-12-31T09:00:19.185Z,6.1
2023-12-31T09:30:04.306Z,6.5
2023-12-31T10:00:26.474Z,6.7
2023-12-31T10:30:27.460Z,6.7
2023-12-31T11:00:19.661Z,6.8
2023-12-31T11:30:04.645Z,6.5
2023-12-31T12:00:26.894Z,5.7
2023-12-31T12:30:12.025Z,5.4
2023-12-31T13:00:08.537Z,5.8
2023-12-31T13:29:59.917Z,5.4
2023-12-31T14:00:12.667Z,5.7
2023-12-31T14:30:17.710Z,5.9
2023-12-31T15:00:17.806Z,5.5
2023-12-31T15:30:03.389Z,5.8
2023-12-31T16:00:10.699Z,5.5
2023-12-31T16:30:12.014Z,5.7
2023-12-31T17:00:27.813Z,5.2
2023-12-31T18:00:07.911Z,4.9
2023-12-31T18:30:26.113Z,4.3
2023-12-31T19:00:16.142Z,4.3
2023-12-31T19:30:15.714Z,4.4
2023-12-31T20:00:23.503Z,4.3
2023-12-31T20:30:23.603Z,4.7
2023-12-31T21:00:08.435Z,4.8
2023-12-31T21:30:17.173Z,4.6
2023-12-31T22:00:16.603Z,4.7
2023-12-31T22:30:11.523Z,4.9
2023-12-31T23:00:19.780Z,4.8
2023-12-31T23:30:03.990Z,4.7
